map of PED home
PED - Airport
Location
City:  Pardubice, Pardubice, Czech Republic
Name:Pardubice Airport
ICAO:LKPD
IATA:PED

Details
Type:Airport (Aerodrome, Airfield)
Use:Public/Civil, Military
Latitude:5000'48"N (50.013419)
Longitude:1544'19"E (15.738647)
Datum:WGS 1984
Elevation:741 ft (226 m)
Variation:4.53E (WMM2015v2 magnetic declination)
0.16 annual change
Runways:1
Longest:8203 × 246 ft (2500 × 75 m), paved

Time
Time Zone:UTC+1 (DST+2)
Local Time:

Weather
METAR:LKPD 041400Z 26008KT 9999 FEW019 BKN040 02/M02 Q1030 RMK BLACK
TAF:LKPD 031900Z 0318/0418 CNL

Related Locations
Nearby:
Farthest:CHT: 11719 mi / 18859 km
Waitangi [Tuuta], CIT, NZ

Find:

   beyond  
but within

Other Information
Maps:
NOTAMs:
Links:
Sources:

  
  • flag of Czech Republic
  • flag of Pardubice
  • flag of Pardubice
  

Sectional Chart

Flight Planning
at skyvector.com

Satellite Image

Google Maps Satellite view

 

Copyright © 2004-2019 Karl L. Swartz. All rights reserved.
The Great Circle Mapper name and logo are trademarks of the Great Circle Mapper.
All other trademarks mentioned herein belong to their respective owners.
Please see credits for attibutions and further copyright information.

  Follow gcmap on Facebook Follow gcmap on Twitter GCmap on LinkedIn

hCard Microformat

Geo Microformat